Time;durP1;ratioP1;P1;durP2;ratioP2;P2;SDS_P1;SDS_P2;PMS_P1;PMS_P2;Temp;Humidity;BMP_temperature;BMP_pressure;BME280_temperature;BME280_humidity;BME280_pressure;Samples;Min_cycle;Max_cycle;Signal;HPM_P1;HPM_P2
2021/07/18 00:01:52;;;;;;;2.50;1.17;;;17.60;99.90;;;;;;4938196;29;20213;-63
2021/07/18 00:04:18;;;;;;;1.00;0.87;;;17.60;99.90;;;;;;4938699;29;20263;-63
2021/07/18 00:06:43;;;;;;;0.57;0.23;;;17.60;99.90;;;;;;4940555;29;20833;-63
2021/07/18 00:09:09;;;;;;;0.97;0.57;;;17.50;99.90;;;;;;4940214;29;20177;-63
2021/07/18 00:11:35;;;;;;;0.40;0.20;;;17.60;99.90;;;;;;4938926;29;20189;-63
2021/07/18 00:14:01;;;;;;;0.40;0.20;;;17.50;99.90;;;;;;4939742;29;20571;-63
2021/07/18 00:16:26;;;;;;;0.40;0.30;;;17.40;99.90;;;;;;4939785;29;20212;-63
2021/07/18 00:18:52;;;;;;;0.40;0.17;;;17.50;99.90;;;;;;4939309;29;20472;-63
2021/07/18 00:21:18;;;;;;;1.13;1.03;;;17.50;99.90;;;;;;4939914;29;20213;-63
2021/07/18 00:23:43;;;;;;;0.40;0.20;;;17.60;99.90;;;;;;4941466;29;20266;-63
2021/07/18 00:26:09;;;;;;;0.50;0.40;;;17.50;99.90;;;;;;4941481;29;20192;-63
2021/07/18 00:28:34;;;;;;;1.83;1.13;;;17.50;99.90;;;;;;4941552;29;20201;-63
2021/07/18 00:31:00;;;;;;;0.40;0.20;;;17.50;99.90;;;;;;4941251;29;20195;-63
2021/07/18 00:33:26;;;;;;;0.40;0.20;;;17.50;99.90;;;;;;4940643;29;20271;-63
2021/07/18 00:35:51;;;;;;;0.40;0.20;;;17.50;99.90;;;;;;4937544;29;20181;-63
2021/07/18 00:38:17;;;;;;;0.40;0.20;;;17.60;99.90;;;;;;4920357;29;20243;-63
2021/07/18 00:40:42;;;;;;;0.40;0.27;;;17.60;99.90;;;;;;4937305;29;20192;-63
2021/07/18 00:43:08;;;;;;;0.70;0.60;;;17.60;99.90;;;;;;4937409;29;20193;-63
2021/07/18 00:45:34;;;;;;;0.40;0.20;;;17.50;99.90;;;;;;4937258;29;20184;-63
2021/07/18 00:47:59;;;;;;;1.23;1.13;;;17.60;99.90;;;;;;4937267;29;20177;-63
2021/07/18 00:50:26;;;;;;;0.40;0.27;;;17.50;99.90;;;;;;4937263;29;20196;-63
2021/07/18 00:52:52;;;;;;;0.40;0.20;;;17.40;99.90;;;;;;4920383;29;20236;-63
2021/07/18 00:55:19;;;;;;;0.50;0.43;;;17.50;99.90;;;;;;4937131;29;20428;-63
2021/07/18 00:57:46;;;;;;;0.40;0.20;;;17.50;99.90;;;;;;4937070;29;20515;-63
2021/07/18 01:00:14;;;;;;;0.40;0.20;;;17.50;99.90;;;;;;4937262;29;20472;-63
2021/07/18 01:02:39;;;;;;;0.50;0.37;;;17.50;99.90;;;;;;4937096;29;20431;-63
2021/07/18 01:05:08;;;;;;;0.40;0.20;;;17.60;99.90;;;;;;4914121;29;20453;-63
2021/07/18 01:07:34;;;;;;;0.40;0.20;;;17.50;99.90;;;;;;4917868;29;20587;-63
2021/07/18 01:10:01;;;;;;;0.40;0.13;;;17.40;99.90;;;;;;4917793;29;20516;-63
2021/07/18 01:12:27;;;;;;;0.40;0.20;;;17.50;99.90;;;;;;4917838;29;20429;-63
2021/07/18 01:14:52;;;;;;;0.40;0.20;;;17.50;99.90;;;;;;4917940;29;20920;-63
2021/07/18 01:17:18;;;;;;;0.40;0.20;;;17.60;99.90;;;;;;4917863;29;20193;-63
2021/07/18 01:19:44;;;;;;;0.40;0.20;;;17.60;99.90;;;;;;4917582;29;20201;-63
2021/07/18 01:22:10;;;;;;;0.40;0.20;;;17.60;99.90;;;;;;4917556;29;20738;-63
2021/07/18 01:24:36;;;;;;;0.43;0.30;;;17.60;99.90;;;;;;4917852;29;20484;-63
2021/07/18 01:27:03;;;;;;;0.40;0.10;;;17.50;99.90;;;;;;4917715;29;20649;-63
2021/07/18 01:29:29;;;;;;;0.40;0.20;;;17.50;99.90;;;;;;4917859;29;20443;-63
2021/07/18 01:31:56;;;;;;;0.40;0.20;;;17.40;99.90;;;;;;4917798;29;20429;-63
2021/07/18 01:34:22;;;;;;;0.40;0.20;;;17.30;99.90;;;;;;4917667;29;20433;-65
2021/07/18 01:36:47;;;;;;;2.70;2.50;;;17.40;99.90;;;;;;4917693;29;20930;-63
2021/07/18 01:39:14;;;;;;;0.40;0.20;;;17.40;99.90;;;;;;4917681;29;20223;-64
2021/07/18 01:41:39;;;;;;;0.40;0.20;;;17.40;99.90;;;;;;4917538;29;20173;-63
2021/07/18 01:44:07;;;;;;;0.40;0.10;;;17.40;99.90;;;;;;4917709;29;20452;-64
2021/07/18 01:46:33;;;;;;;0.40;0.17;;;17.40;99.90;;;;;;4917555;29;20194;-64
2021/07/18 01:49:01;;;;;;;0.40;0.20;;;17.40;99.90;;;;;;4917387;29;20430;-63
2021/07/18 01:51:28;;;;;;;0.50;0.40;;;17.40;99.90;;;;;;4917514;29;20577;-63
2021/07/18 01:53:58;;;;;;;0.53;0.53;;;17.50;99.90;;;;;;4917562;29;20429;-63
2021/07/18 01:56:25;;;;;;;0.97;0.83;;;17.50;99.90;;;;;;4917638;29;20425;-64
2021/07/18 01:58:52;;;;;;;0.40;0.10;;;17.50;99.90;;;;;;4917105;29;21033;-63
2021/07/18 02:01:19;;;;;;;1.13;1.03;;;17.50;99.90;;;;;;4900767;29;20520;-63
2021/07/18 02:03:46;;;;;;;0.40;0.20;;;17.40;99.90;;;;;;4917445;29;20747;-64
2021/07/18 02:06:13;;;;;;;0.40;0.20;;;17.50;99.90;;;;;;4931856;29;20440;-64
2021/07/18 02:08:39;;;;;;;0.40;0.20;;;17.50;99.90;;;;;;4936320;29;20441;-64
2021/07/18 02:11:04;;;;;;;0.93;0.93;;;17.60;99.90;;;;;;4938474;29;20436;-68
2021/07/18 02:13:30;;;;;;;0.50;0.30;;;17.50;99.90;;;;;;4937925;29;20618;-67
2021/07/18 02:15:58;;;;;;;0.40;0.20;;;17.40;99.90;;;;;;4937736;29;20193;-67
2021/07/18 02:18:25;;;;;;;1.10;0.73;;;17.40;99.90;;;;;;4938063;29;20199;-67
2021/07/18 02:20:50;;;;;;;0.40;0.20;;;17.40;99.90;;;;;;4938416;29;20429;-67
2021/07/18 02:23:17;;;;;;;0.40;0.20;;;17.40;99.90;;;;;;4938215;29;20475;-67
2021/07/18 02:25:43;;;;;;;0.40;0.20;;;17.50;99.90;;;;;;4938100;29;20619;-67
2021/07/18 02:28:08;;;;;;;0.40;0.20;;;17.50;99.90;;;;;;4937929;29;20421;-67
2021/07/18 02:30:34;;;;;;;0.40;0.20;;;17.40;99.90;;;;;;4938105;29;20244;-67
2021/07/18 02:33:00;;;;;;;0.40;0.20;;;17.50;99.90;;;;;;4938423;29;20207;-67
2021/07/18 02:35:25;;;;;;;0.40;0.20;;;17.50;99.90;;;;;;4941056;29;20686;-68
2021/07/18 02:37:51;;;;;;;0.40;0.20;;;17.50;99.90;;;;;;4939661;29;20199;-65
2021/07/18 02:40:19;;;;;;;0.40;0.20;;;17.50;99.90;;;;;;4939508;29;20212;-65
2021/07/18 02:42:45;;;;;;;0.40;0.20;;;17.60;99.90;;;;;;4939575;29;20467;-65
2021/07/18 02:45:13;;;;;;;0.40;0.20;;;17.50;99.90;;;;;;4939599;29;20955;-65
2021/07/18 02:47:40;;;;;;;0.40;0.20;;;17.60;99.90;;;;;;4922898;29;20520;-65
2021/07/18 02:50:07;;;;;;;0.40;0.20;;;17.50;99.90;;;;;;4939643;29;20436;-65
2021/07/18 02:52:33;;;;;;;0.40;0.20;;;17.50;99.90;;;;;;4939540;29;20499;-65
2021/07/18 02:54:59;;;;;;;0.40;0.20;;;17.60;99.90;;;;;;4939344;29;20816;-65
2021/07/18 02:57:25;;;;;;;0.40;0.20;;;17.50;99.90;;;;;;4939409;29;20666;-65
2021/07/18 02:59:51;;;;;;;0.60;0.60;;;17.50;99.90;;;;;;4938975;29;20961;-65
2021/07/18 03:02:16;;;;;;;0.83;0.83;;;17.30;99.90;;;;;;4939533;29;20509;-65
2021/07/18 03:04:42;;;;;;;0.40;0.20;;;17.30;99.90;;;;;;4939350;29;20444;-65
2021/07/18 03:07:08;;;;;;;0.50;0.50;;;17.20;99.90;;;;;;4922492;29;20184;-65
2021/07/18 03:09:33;;;;;;;0.40;0.20;;;17.20;99.90;;;;;;4939163;29;20257;-65
2021/07/18 03:11:59;;;;;;;0.40;0.20;;;17.30;99.90;;;;;;4939246;29;20196;-65
2021/07/18 03:14:24;;;;;;;1.37;0.30;;;17.30;99.90;;;;;;4939195;29;20189;-65
2021/07/18 03:16:50;;;;;;;0.40;0.30;;;17.40;99.90;;;;;;4939016;29;20185;-65
2021/07/18 03:19:16;;;;;;;0.50;0.30;;;17.30;99.90;;;;;;4938981;29;20208;-65
2021/07/18 03:21:43;;;;;;;0.40;0.20;;;17.30;99.90;;;;;;4939560;29;20181;-65
2021/07/18 03:24:09;;;;;;;0.40;0.30;;;17.20;99.90;;;;;;4939182;29;20659;-65
2021/07/18 03:26:34;;;;;;;1.17;0.50;;;17.20;99.90;;;;;;4938844;29;20456;-64
2021/07/18 03:29:00;;;;;;;0.50;0.40;;;17.20;99.90;;;;;;4938530;29;20467;-65
2021/07/18 03:31:25;;;;;;;0.70;0.57;;;17.30;99.90;;;;;;4938748;29;20626;-65
2021/07/18 03:33:51;;;;;;;0.40;0.20;;;17.30;99.90;;;;;;4938740;29;20213;-64
2021/07/18 03:36:17;;;;;;;0.50;0.30;;;17.30;99.90;;;;;;4938533;29;20665;-65
2021/07/18 03:38:42;;;;;;;0.50;0.50;;;17.30;99.90;;;;;;4938301;29;20220;-65
2021/07/18 03:41:08;;;;;;;0.40;0.17;;;17.20;99.90;;;;;;4938579;29;20185;-65
2021/07/18 03:43:34;;;;;;;0.40;0.20;;;17.20;99.90;;;;;;4938514;29;20177;-67
2021/07/18 03:45:59;;;;;;;0.40;0.20;;;17.20;99.90;;;;;;4938316;29;20189;-65
2021/07/18 03:48:25;;;;;;;0.40;0.17;;;17.30;99.90;;;;;;4939188;29;20920;-67
2021/07/18 03:50:51;;;;;;;0.40;0.20;;;17.50;99.90;;;;;;4940197;29;20611;-67
2021/07/18 03:53:17;;;;;;;0.43;0.27;;;17.50;99.90;;;;;;4923771;29;20196;-67
2021/07/18 03:55:43;;;;;;;0.63;0.30;;;17.50;99.90;;;;;;4939855;29;20268;-67
2021/07/18 03:58:08;;;;;;;0.40;0.20;;;17.50;99.90;;;;;;4939614;29;20528;-67
2021/07/18 04:00:34;;;;;;;0.40;0.20;;;17.50;99.90;;;;;;4938754;29;20284;-67
2021/07/18 04:02:59;;;;;;;0.50;0.33;;;17.60;99.90;;;;;;4939994;29;20189;-67
2021/07/18 04:05:25;;;;;;;1.27;0.60;;;17.70;99.90;;;;;;4939381;29;20650;-67
2021/07/18 04:07:51;;;;;;;0.40;0.20;;;17.80;99.90;;;;;;4923111;29;20193;-67
2021/07/18 04:10:16;;;;;;;0.40;0.20;;;17.90;99.90;;;;;;4939666;29;20220;-67
2021/07/18 04:12:42;;;;;;;2.33;2.23;;;18.20;99.90;;;;;;4937965;29;20185;-67
2021/07/18 04:15:08;;;;;;;0.40;0.20;;;18.20;99.90;;;;;;4937792;29;20203;-67
2021/07/18 04:17:34;;;;;;;0.40;0.20;;;18.30;99.90;;;;;;4937923;29;20248;-67
2021/07/18 04:19:59;;;;;;;1.37;0.83;;;18.10;99.90;;;;;;4937557;29;21123;-67
2021/07/18 04:22:25;;;;;;;0.40;0.23;;;18.00;99.90;;;;;;4937809;29;20200;-67
2021/07/18 04:24:51;;;;;;;0.63;0.60;;;18.00;99.90;;;;;;4937670;29;20189;-67
2021/07/18 04:27:16;;;;;;;13.40;2.57;;;18.00;99.90;;;;;;4937539;29;20599;-65
2021/07/18 04:29:42;;;;;;;0.40;0.30;;;17.80;99.90;;;;;;4937421;29;20240;-64
2021/07/18 04:32:08;;;;;;;0.40;0.20;;;17.80;99.90;;;;;;4938238;29;20192;-67
2021/07/18 04:34:33;;;;;;;0.40;0.30;;;17.80;99.90;;;;;;4937618;29;20189;-64
2021/07/18 04:37:01;;;;;;;2.10;2.00;;;17.90;99.90;;;;;;4937448;29;20452;-67
2021/07/18 04:39:28;;;;;;;0.50;0.30;;;17.90;99.90;;;;;;4937594;29;20567;-64
2021/07/18 04:41:54;;;;;;;1.37;0.53;;;17.90;99.90;;;;;;4937527;29;20433;-67
2021/07/18 04:44:19;;;;;;;0.40;0.20;;;18.00;99.90;;;;;;4938025;29;20435;-67
2021/07/18 04:46:45;;;;;;;0.57;0.30;;;18.10;99.90;;;;;;4937181;29;20185;-68
2021/07/18 04:49:10;;;;;;;0.40;0.30;;;18.20;99.90;;;;;;4937078;29;20196;-67
2021/07/18 04:51:37;;;;;;;0.40;0.20;;;17.90;99.90;;;;;;4937440;29;20185;-68
2021/07/18 04:54:02;;;;;;;0.73;0.63;;;18.10;99.90;;;;;;4937436;29;20185;-68
2021/07/18 04:56:28;;;;;;;0.87;0.70;;;18.20;99.90;;;;;;4938148;29;20429;-67
2021/07/18 04:58:53;;;;;;;0.50;0.30;;;18.20;99.90;;;;;;4938346;29;20223;-64
2021/07/18 05:01:19;;;;;;;0.70;0.60;;;18.10;99.90;;;;;;4936998;29;20180;-64
2021/07/18 05:03:45;;;;;;;0.83;0.40;;;18.20;99.90;;;;;;4938148;29;20661;-65
2021/07/18 05:06:10;;;;;;;0.40;0.20;;;18.30;99.90;;;;;;4936913;29;20200;-65
2021/07/18 05:08:36;;;;;;;0.40;0.20;;;18.60;99.90;;;;;;4937545;29;20508;-65
2021/07/18 05:11:03;;;;;;;2.00;1.90;;;18.70;99.90;;;;;;4936925;29;20209;-64
2021/07/18 05:13:28;;;;;;;11.80;1.40;;;18.90;99.90;;;;;;4938520;29;20191;-67
2021/07/18 05:15:57;;;;;;;0.40;0.20;;;19.70;99.90;;;;;;4922808;29;20440;-67
2021/07/18 05:18:23;;;;;;;0.60;0.40;;;20.60;99.90;;;;;;4922938;29;20190;-67
2021/07/18 05:20:48;;;;;;;0.40;0.20;;;22.40;1.00;;;;;;4919849;29;20443;-65
2021/07/18 05:23:14;;;;;;;0.60;0.50;;;23.70;94.40;;;;;;4938394;29;20185;-68
2021/07/18 05:25:40;;;;;;;0.63;0.50;;;23.40;1.00;;;;;;4940048;29;20181;-65
2021/07/18 05:28:06;;;;;;;0.40;0.20;;;23.30;1.00;;;;;;4922946;29;20630;-68
2021/07/18 05:30:32;;;;;;;0.40;0.20;;;23.50;1.00;;;;;;4922042;29;20189;-65
2021/07/18 05:32:57;;;;;;;0.40;0.20;;;24.60;99.90;;;;;;4937625;29;20499;-65
2021/07/18 05:35:23;;;;;;;0.47;0.20;;;23.60;1.00;;;;;;4936579;29;20240;-65
2021/07/18 05:37:50;;;;;;;0.40;0.20;;;23.50;1.00;;;;;;4936684;29;20184;-68
2021/07/18 05:40:16;;;;;;;0.40;0.20;;;23.80;99.90;;;;;;4941013;29;20504;-68
2021/07/18 05:42:42;;;;;;;5.27;1.57;;;24.10;1.00;;;;;;4923005;29;20441;-65
2021/07/18 05:45:09;;;;;;;3.03;0.80;;;24.70;1.00;;;;;;4937102;29;20492;-65
2021/07/18 05:47:34;;;;;;;0.57;0.40;;;24.40;99.90;;;;;;4936456;29;20425;-65
2021/07/18 05:50:01;;;;;;;0.50;0.30;;;24.40;1.00;;;;;;4936457;29;20435;-65
2021/07/18 05:52:26;;;;;;;2.60;1.13;;;24.60;99.90;;;;;;4936456;29;20211;-64
2021/07/18 05:54:55;;;;;;;0.50;0.30;;;25.40;1.00;;;;;;4940001;29;20429;-68
2021/07/18 05:57:22;;;;;;;4.57;0.77;;;25.80;99.90;;;;;;4939230;29;20210;-67
2021/07/18 05:59:48;;;;;;;0.50;0.30;;;24.70;99.90;;;;;;4922786;29;20953;-64
2021/07/18 06:02:15;;;;;;;0.50;0.40;;;24.40;1.00;;;;;;4936259;29;20966;-65
2021/07/18 06:04:43;;;;;;;1.27;0.67;;;25.70;99.90;;;;;;4920204;29;20467;-67
2021/07/18 06:07:10;;;;;;;1.67;0.47;;;24.10;1.00;;;;;;4922145;29;20444;-65
2021/07/18 06:09:35;;;;;;;0.50;0.20;;;24.50;1.00;;;;;;4942209;29;20511;-69
2021/07/18 06:12:01;;;;;;;1.73;1.10;;;25.10;1.00;;;;;;4944584;29;20527;-68
2021/07/18 06:14:27;;;;;;;0.50;0.20;;;25.10;1.00;;;;;;4925906;29;20193;-65
2021/07/18 06:16:53;;;;;;;2.57;0.40;;;25.20;1.00;;;;;;4940947;29;20898;-68
2021/07/18 06:19:19;;;;;;;0.40;0.10;;;26.00;99.90;;;;;;4940781;29;20254;-68
2021/07/18 06:21:44;;;;;;;0.90;0.70;;;27.20;99.90;;;;;;4940359;29;20577;-68
2021/07/18 06:24:10;;;;;;;0.40;0.10;;;28.30;99.90;;;;;;4941305;29;20428;-66
2021/07/18 06:26:36;;;;;;;0.77;0.47;;;27.80;1.00;;;;;;4942199;29;20262;-65
2021/07/18 06:29:04;;;;;;;0.50;0.30;;;27.00;51.00;;;;;;4940393;29;20177;-69
2021/07/18 06:31:29;;;;;;;2.00;1.60;;;26.10;1.00;;;;;;4940554;29;20220;-66
2021/07/18 06:33:58;;;;;;;0.40;0.20;;;24.80;1.00;;;;;;4940051;29;20918;-66
2021/07/18 06:36:23;;;;;;;0.40;0.10;;;24.80;1.00;;;;;;4939744;29;20185;-68
2021/07/18 06:38:49;;;;;;;0.40;0.10;;;26.50;1.00;;;;;;4940122;29;20539;-68
2021/07/18 06:41:15;;;;;;;0.77;0.57;;;27.70;1.00;;;;;;4923900;29;20256;-69
2021/07/18 06:43:41;;;;;;;5.53;0.80;;;27.30;1.00;;;;;;4941333;29;20428;-66
2021/07/18 06:46:06;;;;;;;1.03;0.40;;;26.60;99.90;;;;;;4941735;29;20177;-69
2021/07/18 06:48:32;;;;;;;0.67;0.20;;;25.40;1.00;;;;;;4941217;29;20181;-67
2021/07/18 06:50:57;;;;;;;0.70;0.63;;;25.10;1.00;;;;;;4939454;29;20185;-68
2021/07/18 06:53:25;;;;;;;1.17;1.07;;;26.20;1.00;;;;;;4941627;29;20208;-66
2021/07/18 06:55:51;;;;;;;0.67;0.67;;;27.10;10.80;;;;;;4939456;29;20184;-68
2021/07/18 06:58:17;;;;;;;1.63;0.87;;;28.30;99.90;;;;;;4939699;29;20428;-69
2021/07/18 07:00:43;;;;;;;0.47;0.23;;;28.20;99.90;;;;;;4924046;29;20482;-67
2021/07/18 07:03:08;;;;;;;0.50;0.20;;;27.30;1.00;;;;;;4940775;29;20189;-68
2021/07/18 07:05:35;;;;;;;0.50;0.40;;;25.60;99.90;;;;;;4939314;29;20547;-66
2021/07/18 07:08:01;;;;;;;1.60;1.10;;;25.90;1.00;;;;;;4941555;29;20268;-69
2021/07/18 07:10:26;;;;;;;0.40;0.20;;;25.70;99.90;;;;;;4941674;29;20815;-66
2021/07/18 07:12:52;;;;;;;0.50;0.30;;;24.90;1.00;;;;;;4939243;29;20216;-64
2021/07/18 07:15:17;;;;;;;0.40;0.20;;;24.20;99.90;;;;;;4939154;29;20261;-65
2021/07/18 07:17:43;;;;;;;0.70;0.57;;;24.20;99.90;;;;;;4940617;29;20193;-67
2021/07/18 07:20:11;;;;;;;2.30;0.70;;;25.00;50.00;;;;;;4938203;29;20208;-69
2021/07/18 07:22:38;;;;;;;0.40;0.20;;;26.40;99.90;;;;;;4939087;29;20205;-68
2021/07/18 07:25:05;;;;;;;3.00;1.70;;;26.60;1.00;;;;;;4939213;29;20503;-65
2021/07/18 07:27:31;;;;;;;1.17;1.07;;;26.70;1.00;;;;;;4938900;29;20479;-68
2021/07/18 07:29:57;;;;;;;0.50;0.20;;;26.60;1.00;;;;;;4940891;29;20893;-65
2021/07/18 07:32:22;;;;;;;0.40;0.20;;;27.80;99.90;;;;;;4938852;29;20325;-65
2021/07/18 07:34:48;;;;;;;0.50;0.20;;;28.10;99.90;;;;;;4938540;29;20649;-65
2021/07/18 07:37:13;;;;;;;1.33;0.90;;;27.80;99.90;;;;;;4938747;29;20200;-66
2021/07/18 07:39:40;;;;;;;2.80;1.07;;;27.10;1.00;;;;;;4938341;29;20248;-65
2021/07/18 07:42:06;;;;;;;0.40;0.20;;;26.20;99.90;;;;;;4939178;29;20223;-65
2021/07/18 07:44:32;;;;;;;0.50;0.23;;;26.50;1.00;;;;;;4938570;29;20528;-65
2021/07/18 07:46:58;;;;;;;0.50;0.23;;;26.20;19.80;;;;;;4939186;29;20531;-65
2021/07/18 07:49:24;;;;;;;0.90;0.90;;;24.70;1.00;;;;;;4938869;29;20439;-65
2021/07/18 07:51:50;;;;;;;0.40;0.20;;;24.40;99.90;;;;;;4922342;29;20516;-65
2021/07/18 07:54:15;;;;;;;1.03;1.03;;;24.00;74.00;;;;;;4938416;29;20275;-65
2021/07/18 07:56:42;;;;;;;0.50;0.30;;;24.60;68.80;;;;;;4938598;29;20189;-69
2021/07/18 07:59:07;;;;;;;0.50;0.30;;;25.20;1.00;;;;;;4938344;29;20205;-66
2021/07/18 08:01:33;;;;;;;0.50;0.30;;;25.50;1.00;;;;;;4938923;29;20504;-66
2021/07/18 08:03:58;;;;;;;0.53;0.30;;;26.00;1.00;;;;;;4940451;29;20268;-66
2021/07/18 08:06:24;;;;;;;0.50;0.30;;;24.60;99.90;;;;;;4938206;29;20206;-65
2021/07/18 08:08:50;;;;;;;0.50;0.30;;;24.10;99.90;;;;;;4938463;29;20289;-68
2021/07/18 08:11:15;;;;;;;0.40;0.10;;;24.00;99.90;;;;;;4938621;29;20185;-68
2021/07/18 08:13:42;;;;;;;0.60;0.40;;;23.30;99.90;;;;;;4940290;29;20189;-68
2021/07/18 08:16:08;;;;;;;0.50;0.37;;;23.20;1.00;;;;;;4923713;29;20205;-69
2021/07/18 08:18:35;;;;;;;0.77;0.50;;;23.50;99.90;;;;;;4939795;29;20441;-68
2021/07/18 08:21:01;;;;;;;0.70;0.50;;;23.40;99.90;;;;;;4938289;29;20431;-65
2021/07/18 08:23:29;;;;;;;0.43;0.20;;;23.50;99.90;;;;;;4937895;29;20443;-65
2021/07/18 08:25:55;;;;;;;0.50;0.30;;;23.70;1.00;;;;;;4920607;29;20810;-64
2021/07/18 08:28:22;;;;;;;1.00;0.40;;;23.60;1.00;;;;;;4938634;29;20432;-67
2021/07/18 08:30:48;;;;;;;0.70;0.20;;;23.20;1.00;;;;;;4938581;29;20187;-65
2021/07/18 08:33:13;;;;;;;0.40;0.20;;;23.10;1.00;;;;;;4937871;29;20508;-67
2021/07/18 08:35:39;;;;;;;0.50;0.40;;;23.30;1.00;;;;;;4938841;29;20185;-68
2021/07/18 08:38:06;;;;;;;0.40;0.20;;;23.30;1.00;;;;;;4939926;29;20204;-69
2021/07/18 08:40:37;;;;;;;0.40;0.20;;;24.00;99.90;;;;;;4938545;29;20213;-68
2021/07/18 08:43:04;;;;;;;0.50;0.27;;;23.70;99.90;;;;;;4938641;29;20432;-67
2021/07/18 08:45:30;;;;;;;0.50;0.30;;;23.60;1.00;;;;;;4939863;29;20965;-67
2021/07/18 08:47:59;;;;;;;5.90;0.83;;;23.80;87.00;;;;;;4940156;29;20464;-65
2021/07/18 08:50:25;;;;;;;2.30;1.20;;;24.10;99.90;;;;;;4921314;29;20564;-67
2021/07/18 08:52:55;;;;;;;0.50;0.40;;;23.60;1.00;;;;;;4937939;29;20436;-66
2021/07/18 08:55:22;;;;;;;0.80;0.47;;;23.70;1.00;;;;;;4937492;29;20193;-66
2021/07/18 08:57:48;;;;;;;0.63;0.50;;;23.80;1.00;;;;;;4936611;29;20948;-65
2021/07/18 09:00:14;;;;;;;0.50;0.30;;;23.80;59.10;;;;;;4937620;29;20511;-66
2021/07/18 09:02:41;;;;;;;0.50;0.30;;;23.80;1.00;;;;;;4937323;29;20433;-64
2021/07/18 09:05:07;;;;;;;2.03;0.70;;;24.00;1.00;;;;;;4938012;29;20897;-66
2021/07/18 09:07:44;;;;;;;0.97;0.60;;;24.10;99.90;;;;;;4937205;29;20898;-66
2021/07/18 09:10:11;;;;;;;1.47;0.30;;;24.40;1.00;;;;;;4937157;29;20519;-64
2021/07/18 09:12:36;;;;;;;0.60;0.60;;;24.80;1.00;;;;;;4937245;29;20519;-64
2021/07/18 09:15:03;;;;;;;1.47;0.50;;;24.40;99.90;;;;;;4937326;29;20429;-68
2021/07/18 09:17:35;;;;;;;0.50;0.40;;;23.80;60.80;;;;;;4937871;29;20579;-68
2021/07/18 09:20:12;;;;;;;0.50;0.20;;;24.10;99.90;;;;;;4937333;29;20469;-67
2021/07/18 09:22:37;;;;;;;0.40;0.10;;;24.30;1.00;;;;;;4938021;29;20492;-67
2021/07/18 09:25:04;;;;;;;1.47;1.37;;;24.60;1.00;;;;;;4921465;29;20440;-69
2021/07/18 09:27:33;;;;;;;1.17;0.40;;;24.60;99.90;;;;;;4937316;29;20191;-67
2021/07/18 09:30:09;;;;;;;0.43;0.20;;;24.80;1.00;;;;;;4936509;29;20446;-67
2021/07/18 09:32:38;;;;;;;0.50;0.30;;;24.40;99.90;;;;;;4920655;29;20939;-67
2021/07/18 09:35:13;;;;;;;0.50;0.30;;;23.80;1.00;;;;;;4937283;29;20433;-65
2021/07/18 09:37:46;;;;;;;0.60;0.30;;;23.90;1.00;;;;;;4936984;29;20447;-65
2021/07/18 09:40:18;;;;;;;0.50;0.30;;;24.10;99.90;;;;;;4921139;29;20491;-67
2021/07/18 09:43:01;;;;;;;0.40;0.20;;;23.80;86.50;;;;;;4937920;29;20464;-68
2021/07/18 09:45:32;;;;;;;0.50;0.20;;;24.10;1.00;;;;;;4938777;29;20491;-67
2021/07/18 09:48:09;;;;;;;1.00;0.70;;;24.50;1.00;;;;;;4937750;29;20432;-64
2021/07/18 09:50:44;;;;;;;0.50;0.20;;;24.90;1.00;;;;;;4922052;29;20460;-67
2021/07/18 09:53:19;;;;;;;0.40;0.20;;;24.70;99.90;;;;;;4938890;29;20924;-67
2021/07/18 09:56:06;;;;;;;0.50;0.20;;;24.70;1.00;;;;;;4939348;29;20507;-68
2021/07/18 09:58:32;;;;;;;0.60;0.50;;;25.00;99.90;;;;;;4939435;29;20816;-65
2021/07/18 10:01:00;;;;;;;0.50;0.20;;;24.60;99.90;;;;;;4939987;29;20436;-67
2021/07/18 10:03:27;;;;;;;0.50;0.20;;;24.80;99.90;;;;;;4939092;29;20429;-64
2021/07/18 10:06:09;;;;;;;1.17;0.80;;;25.30;99.90;;;;;;4938234;29;20475;-65
2021/07/18 10:08:45;;;;;;;0.47;0.20;;;25.60;99.90;;;;;;4937849;29;20449;-67
2021/07/18 10:11:13;;;;;;;0.70;0.40;;;24.50;1.00;;;;;;4938252;29;20431;-67
2021/07/18 10:13:41;;;;;;;0.40;0.20;;;24.50;1.00;;;;;;4938048;29;20428;-67
2021/07/18 10:16:09;;;;;;;0.50;0.20;;;24.50;99.90;;;;;;4938039;29;20465;-69
2021/07/18 10:18:37;;;;;;;0.87;0.40;;;24.90;99.90;;;;;;4936622;29;20447;-69
2021/07/18 10:21:03;;;;;;;0.50;0.20;;;25.20;99.90;;;;;;4937116;29;20557;-66
2021/07/18 10:23:29;;;;;;;0.40;0.20;;;25.20;1.00;;;;;;4919959;29;20882;-65
2021/07/18 10:25:56;;;;;;;0.50;0.20;;;25.50;55.30;;;;;;4937697;29;20432;-68
2021/07/18 10:28:25;;;;;;;0.60;0.60;;;25.00;1.00;;;;;;4937153;29;20794;-68
2021/07/18 10:30:54;;;;;;;0.60;0.50;;;24.90;99.90;;;;;;4920089;29;20441;-66
2021/07/18 10:33:21;;;;;;;0.50;0.20;;;24.70;1.00;;;;;;4904144;29;20447;-65
2021/07/18 10:35:50;;;;;;;0.80;0.47;;;25.00;1.00;;;;;;4937032;29;20515;-68
2021/07/18 10:38:19;;;;;;;1.53;1.07;;;25.30;99.90;;;;;;4920229;29;20796;-66
2021/07/18 10:40:55;;;;;;;0.60;0.50;;;25.20;99.90;;;;;;4935981;29;20802;-66
2021/07/18 10:43:46;;;;;;;0.40;0.20;;;25.40;1.00;;;;;;4936295;29;20957;-66
2021/07/18 10:46:14;;;;;;;0.40;0.20;;;25.40;49.90;;;;;;4935996;29;20532;-65
2021/07/18 10:48:48;;;;;;;1.93;1.80;;;24.80;99.90;;;;;;4935493;29;20433;-65
2021/07/18 10:51:32;;;;;;;0.50;0.20;;;24.70;1.00;;;;;;4935879;29;20443;-65
2021/07/18 10:54:13;;;;;;;0.50;0.30;;;24.70;99.90;;;;;;4935674;29;20472;-65
2021/07/18 10:56:41;;;;;;;0.60;0.30;;;24.80;1.00;;;;;;4938976;29;20439;-65
2021/07/18 10:59:07;;;;;;;1.70;0.73;;;24.70;1.00;;;;;;4938846;29;20480;-65
2021/07/18 11:01:35;;;;;;;0.50;0.20;;;24.70;99.90;;;;;;4939178;29;20446;-64
2021/07/18 11:04:04;;;;;;;0.50;0.23;;;24.80;9.10;;;;;;4939002;29;20506;-64
2021/07/18 11:06:37;;;;;;;0.70;0.50;;;24.80;99.90;;;;;;4938704;29;20448;-65
2021/07/18 11:09:06;;;;;;;0.60;0.50;;;24.80;1.00;;;;;;4938865;29;20832;-65
2021/07/18 11:11:42;;;;;;;0.47;0.10;;;24.80;1.00;;;;;;4922341;29;20440;-66
2021/07/18 11:14:36;;;;;;;0.50;0.20;;;25.10;99.90;;;;;;4938921;29;20503;-65
2021/07/18 11:17:23;;;;;;;0.60;0.37;;;25.30;1.00;;;;;;4938646;29;20432;-65
2021/07/18 11:20:00;;;;;;;0.63;0.30;;;25.60;1.00;;;;;;4938690;29;20525;-65
2021/07/18 11:22:54;;;;;;;0.50;0.20;;;25.50;1.00;;;;;;4938886;29;20909;-65
2021/07/18 11:25:37;;;;;;;0.50;0.20;;;25.50;1.00;;;;;;4938713;29;20455;-66
2021/07/18 11:28:03;;;;;;;0.50;0.20;;;24.90;66.30;;;;;;4938931;29;20778;-64
2021/07/18 11:30:39;;;;;;;0.93;0.30;;;25.00;11.30;;;;;;4938773;29;20443;-64
2021/07/18 11:33:27;;;;;;;0.90;0.47;;;24.70;99.90;;;;;;4938920;29;20674;-64
2021/07/18 11:35:57;;;;;;;0.60;0.30;;;25.10;99.90;;;;;;4939025;29;20454;-67
2021/07/18 11:38:23;;;;;;;0.47;0.13;;;25.20;1.00;;;;;;4922364;29;20452;-67
2021/07/18 11:40:49;;;;;;;0.50;0.20;;;25.60;1.00;;;;;;4939802;29;20543;-64
2021/07/18 11:43:15;;;;;;;1.23;0.87;;;25.50;1.00;;;;;;4940354;29;20749;-68
2021/07/18 11:45:41;;;;;;;0.50;0.20;;;25.20;99.90;;;;;;4938940;29;20489;-66
2021/07/18 11:48:07;;;;;;;0.60;0.50;;;25.20;1.00;;;;;;4938441;29;20196;-64
2021/07/18 11:50:33;;;;;;;0.50;0.20;;;25.30;1.00;;;;;;4939772;29;20192;-68
2021/07/18 11:52:59;;;;;;;10.20;0.97;;;25.60;1.00;;;;;;4939678;29;20189;-69
2021/07/18 11:55:26;;;;;;;0.80;0.50;;;25.40;99.90;;;;;;4921728;29;20850;-68
2021/07/18 11:57:52;;;;;;;0.50;0.20;;;25.00;99.90;;;;;;4939391;29;20437;-68
2021/07/18 12:00:18;;;;;;;1.03;0.67;;;24.80;99.90;;;;;;4939126;29;20562;-68
2021/07/18 12:02:44;;;;;;;2.60;1.03;;;25.40;4.10;;;;;;4939114;29;20480;-68
2021/07/18 12:05:10;;;;;;;0.50;0.30;;;25.60;1.00;;;;;;4938602;29;20708;-68
2021/07/18 12:07:36;;;;;;;0.50;0.20;;;25.20;1.00;;;;;;4939593;29;20543;-69
2021/07/18 12:10:03;;;;;;;0.50;0.20;;;25.20;10.80;;;;;;4938946;29;20468;-68
2021/07/18 12:12:29;;;;;;;0.50;0.20;;;25.80;1.00;;;;;;4939236;29;20180;-68
2021/07/18 12:14:55;;;;;;;0.50;0.20;;;26.00;1.00;;;;;;4938542;29;20609;-65
2021/07/18 12:17:21;;;;;;;0.50;0.20;;;25.90;1.00;;;;;;4921106;29;20280;-65
2021/07/18 12:19:46;;;;;;;0.50;0.23;;;25.30;1.00;;;;;;4937897;29;20535;-67
2021/07/18 12:22:15;;;;;;;3.43;1.63;;;25.20;1.00;;;;;;4937949;29;20645;-65
2021/07/18 12:24:48;;;;;;;0.90;0.63;;;25.00;1.00;;;;;;4937847;29;20264;-65
2021/07/18 12:27:20;;;;;;;0.50;0.20;;;25.00;95.00;;;;;;4937956;29;20436;-65
2021/07/18 12:29:54;;;;;;;0.80;0.30;;;25.40;1.00;;;;;;4938176;29;20515;-68
2021/07/18 12:32:21;;;;;;;0.60;0.40;;;25.60;1.00;;;;;;4938537;29;20918;-68
2021/07/18 12:34:52;;;;;;;0.80;0.60;;;25.70;99.90;;;;;;4938406;29;20810;-68
2021/07/18 12:37:23;;;;;;;0.47;0.20;;;25.80;99.90;;;;;;4938118;29;20820;-68
2021/07/18 12:39:59;;;;;;;0.53;0.30;;;25.80;1.00;;;;;;4937804;29;20524;-69
2021/07/18 12:42:33;;;;;;;0.50;0.20;;;25.90;99.90;;;;;;4920877;29;20535;-68
2021/07/18 12:45:20;;;;;;;0.50;0.10;;;26.00;99.90;;;;;;4938668;29;20478;-68
2021/07/18 12:47:47;;;;;;;0.50;0.20;;;26.50;99.90;;;;;;4937451;29;20456;-66
2021/07/18 12:50:19;;;;;;;0.50;0.20;;;26.60;99.90;;;;;;4937108;29;20460;-65
2021/07/18 12:52:58;;;;;;;0.50;0.17;;;26.50;99.90;;;;;;4920516;29;20440;-66